createdAt,value
2023-02-14T00:00:53.014Z,1028.86
2023-02-14T00:01:53.019Z,1028.86
2023-02-14T00:02:53.054Z,1028.88
2023-02-14T00:03:52.996Z,1028.85
2023-02-14T00:04:53.041Z,1028.87
2023-02-14T00:05:52.979Z,1028.86
2023-02-14T00:06:52.960Z,1028.90
2023-02-14T00:07:52.997Z,1028.89
2023-02-14T00:08:52.949Z,1028.90
2023-02-14T00:09:52.932Z,1028.86
2023-02-14T00:10:52.909Z,1028.91
2023-02-14T00:11:52.915Z,1028.90
2023-02-14T00:12:52.890Z,1028.89
2023-02-14T00:13:52.900Z,1028.90
2023-02-14T00:14:52.865Z,1028.87
2023-02-14T00:15:52.889Z,1028.91
2023-02-14T00:16:52.849Z,1028.91
2023-02-14T00:17:52.845Z,1028.90
2023-02-14T00:18:52.838Z,1028.91
2023-02-14T00:19:52.822Z,1028.93
2023-02-14T00:20:52.807Z,1028.91
2023-02-14T00:21:52.809Z,1028.95
2023-02-14T00:22:52.790Z,1028.96
2023-02-14T00:23:52.799Z,1028.95
2023-02-14T00:24:52.750Z,1028.88
2023-02-14T00:25:52.748Z,1028.93
2023-02-14T00:26:52.744Z,1028.88
2023-02-14T00:27:52.731Z,1028.89
2023-02-14T00:28:52.730Z,1028.91
2023-02-14T00:29:52.748Z,1028.91
2023-02-14T00:30:52.734Z,1028.86
2023-02-14T00:31:52.740Z,1028.83
2023-02-14T00:32:52.672Z,1028.81
2023-02-14T00:33:52.673Z,1028.81
2023-02-14T00:34:52.659Z,1028.82
2023-02-14T00:35:52.651Z,1028.82
2023-02-14T00:36:52.632Z,1028.80
2023-02-14T00:37:52.621Z,1028.78
2023-02-14T00:38:52.631Z,1028.76
2023-02-14T00:39:52.600Z,1028.77
2023-02-14T00:40:52.580Z,1028.76
2023-02-14T00:41:52.584Z,1028.77
2023-02-14T00:42:52.569Z,1028.74
2023-02-14T00:43:52.572Z,1028.74
2023-02-14T00:44:52.571Z,1028.74
2023-02-14T00:45:52.554Z,1028.72
2023-02-14T00:46:52.528Z,1028.70
2023-02-14T00:47:52.529Z,1028.70
2023-02-14T00:48:52.508Z,1028.68
2023-02-14T00:49:52.508Z,1028.69
2023-02-14T00:50:52.491Z,1028.63
2023-02-14T00:51:52.473Z,1028.65
2023-02-14T00:52:52.461Z,1028.63
2023-02-14T00:53:52.462Z,1028.60
2023-02-14T00:54:52.430Z,1028.65
2023-02-14T00:55:52.431Z,1028.66
2023-02-14T00:56:52.411Z,1028.61
2023-02-14T00:57:52.413Z,1028.62
2023-02-14T00:58:52.403Z,1028.60
2023-02-14T00:59:52.386Z,1028.62
2023-02-14T01:00:52.399Z,1028.62
2023-02-14T01:01:52.360Z,1028.61
2023-02-14T01:02:52.409Z,1028.61
2023-02-14T01:03:52.367Z,1028.60
2023-02-14T01:04:52.325Z,1028.59
2023-02-14T01:05:52.323Z,1028.59
2023-02-14T01:06:52.309Z,1028.64
2023-02-14T01:07:52.302Z,1028.59
2023-02-14T01:08:52.297Z,1028.62
2023-02-14T01:09:52.273Z,1028.61
2023-02-14T01:10:52.253Z,1028.56
2023-02-14T01:11:52.251Z,1028.60
2023-02-14T01:12:52.232Z,1028.59
2023-02-14T01:13:52.254Z,1028.55
2023-02-14T01:14:52.212Z,1028.56
2023-02-14T01:15:52.207Z,1028.57
2023-02-14T01:16:52.256Z,1028.53
2023-02-14T01:17:52.181Z,1028.53
2023-02-14T01:18:52.181Z,1028.53
2023-02-14T01:19:52.163Z,1028.55
2023-02-14T01:20:52.152Z,1028.53
2023-02-14T01:21:52.139Z,1028.52
2023-02-14T01:22:52.132Z,1028.49
2023-02-14T01:23:52.145Z,1028.54
2023-02-14T01:24:52.103Z,1028.59
2023-02-14T01:25:52.090Z,1028.52
2023-02-14T01:26:52.096Z,1028.56
2023-02-14T01:27:52.062Z,1028.61
2023-02-14T01:28:52.075Z,1028.56
2023-02-14T01:29:52.094Z,1028.58
2023-02-14T01:30:52.145Z,1028.60
2023-02-14T01:31:52.092Z,1028.63
2023-02-14T01:32:52.020Z,1028.62
2023-02-14T01:33:52.015Z,1028.57
2023-02-14T01:34:52.003Z,1028.59
2023-02-14T01:35:51.984Z,1028.61
2023-02-14T01:36:51.980Z,1028.63
2023-02-14T01:37:51.968Z,1028.65
2023-02-14T01:38:51.974Z,1028.62
2023-02-14T01:39:51.937Z,1028.59
2023-02-14T01:40:51.925Z,1028.59
2023-02-14T01:41:51.921Z,1028.60
2023-02-14T01:42:51.908Z,1028.55
2023-02-14T01:43:51.912Z,1028.59
2023-02-14T01:44:51.889Z,1028.55
2023-02-14T01:45:51.899Z,1028.56
2023-02-14T01:46:51.874Z,1028.56
2023-02-14T01:47:51.858Z,1028.55
2023-02-14T01:48:51.849Z,1028.57
2023-02-14T01:49:51.839Z,1028.55
2023-02-14T01:50:51.820Z,1028.56
2023-02-14T01:51:51.859Z,1028.57
2023-02-14T01:52:51.810Z,1028.55
2023-02-14T01:53:51.816Z,1028.53
2023-02-14T01:54:51.788Z,1028.56
2023-02-14T01:55:51.778Z,1028.57
2023-02-14T01:56:51.774Z,1028.52
2023-02-14T01:57:51.740Z,1028.50
2023-02-14T01:58:51.749Z,1028.47
2023-02-14T01:59:51.729Z,1028.48
2023-02-14T02:00:51.737Z,1028.47
2023-02-14T02:01:51.762Z,1028.46
2023-02-14T02:02:51.695Z,1028.45
2023-02-14T02:03:51.685Z,1028.45
2023-02-14T02:04:51.671Z,1028.42
2023-02-14T02:05:51.663Z,1028.47
2023-02-14T02:06:51.643Z,1028.41
2023-02-14T02:07:51.651Z,1028.45
2023-02-14T02:08:51.651Z,1028.44
2023-02-14T02:09:51.611Z,1028.43
2023-02-14T02:10:51.610Z,1028.41
2023-02-14T02:11:51.604Z,1028.43
2023-02-14T02:12:51.581Z,1028.44
2023-02-14T02:13:51.575Z,1028.47
2023-02-14T02:14:51.582Z,1028.46
2023-02-14T02:15:51.546Z,1028.49
2023-02-14T02:16:51.600Z,1028.52
2023-02-14T02:17:51.522Z,1028.52
2023-02-14T02:18:51.512Z,1028.53
2023-02-14T02:19:51.536Z,1028.49
2023-02-14T02:20:51.492Z,1028.48
2023-02-14T02:21:51.473Z,1028.50
2023-02-14T02:22:51.473Z,1028.52
2023-02-14T02:23:51.465Z,1028.49
2023-02-14T02:24:51.462Z,1028.47
2023-02-14T02:25:51.436Z,1028.48
2023-02-14T02:26:51.437Z,1028.48
2023-02-14T02:27:51.417Z,1028.46
2023-02-14T02:28:51.431Z,1028.46
2023-02-14T02:29:51.435Z,1028.40
2023-02-14T02:30:51.497Z,1028.41
2023-02-14T02:31:51.481Z,1028.39
2023-02-14T02:32:51.364Z,1028.40
2023-02-14T02:33:51.357Z,1028.37
2023-02-14T02:34:51.341Z,1028.36
2023-02-14T02:35:51.323Z,1028.34
2023-02-14T02:36:51.330Z,1028.32
2023-02-14T02:37:51.304Z,1028.35
2023-02-14T02:38:51.321Z,1028.33
2023-02-14T02:39:51.288Z,1028.34
2023-02-14T02:40:51.274Z,1028.35
2023-02-14T02:41:51.255Z,1028.37
2023-02-14T02:42:51.244Z,1028.36
2023-02-14T02:43:51.262Z,1028.33
2023-02-14T02:44:51.245Z,1028.36
2023-02-14T02:45:51.274Z,1028.39
2023-02-14T02:46:51.215Z,1028.37
2023-02-14T02:47:51.212Z,1028.35
2023-02-14T02:48:51.184Z,1028.32
2023-02-14T02:49:51.194Z,1028.33
2023-02-14T02:50:51.175Z,1028.32
2023-02-14T02:51:51.152Z,1028.35
2023-02-14T02:52:51.145Z,1028.30
2023-02-14T02:53:51.139Z,1028.29
2023-02-14T02:54:51.131Z,1028.29
2023-02-14T02:55:51.116Z,1028.28
2023-02-14T02:56:51.126Z,1028.30
2023-02-14T02:57:51.092Z,1028.29
2023-02-14T02:58:51.169Z,1028.26
2023-02-14T02:59:51.082Z,1028.29
2023-02-14T03:00:51.067Z,1028.25
2023-02-14T03:01:51.085Z,1028.31
2023-02-14T03:02:51.034Z,1028.29
2023-02-14T03:03:51.038Z,1028.30
2023-02-14T03:04:51.055Z,1028.27
2023-02-14T03:05:51.009Z,1028.27
2023-02-14T03:06:50.995Z,1028.28
2023-02-14T03:07:50.993Z,1028.30
2023-02-14T03:08:50.975Z,1028.30
2023-02-14T03:09:50.973Z,1028.29
2023-02-14T03:10:50.953Z,1028.31
2023-02-14T03:11:50.946Z,1028.32
2023-02-14T03:12:50.991Z,1028.33
2023-02-14T03:13:50.958Z,1028.34
2023-02-14T03:14:50.938Z,1028.37
2023-02-14T03:15:50.922Z,1028.36
2023-02-14T03:16:50.886Z,1028.33
2023-02-14T03:17:50.885Z,1028.35
2023-02-14T03:18:50.870Z,1028.34
2023-02-14T03:19:50.883Z,1028.33
2023-02-14T03:20:50.847Z,1028.36
2023-02-14T03:21:50.842Z,1028.32
2023-02-14T03:22:50.848Z,1028.30
2023-02-14T03:23:50.829Z,1028.30
2023-02-14T03:24:50.816Z,1028.33
2023-02-14T03:25:50.801Z,1028.32
2023-02-14T03:26:50.787Z,1028.30
2023-02-14T03:27:50.780Z,1028.30
2023-02-14T03:28:50.766Z,1028.29
2023-02-14T03:29:50.784Z,1028.29
2023-02-14T03:30:50.869Z,1028.30
2023-02-14T03:31:50.849Z,1028.34
2023-02-14T03:32:50.717Z,1028.32
2023-02-14T03:33:50.713Z,1028.32
2023-02-14T03:34:50.708Z,1028.35
2023-02-14T03:35:50.722Z,1028.34
2023-02-14T03:36:50.675Z,1028.34
2023-02-14T03:37:50.684Z,1028.38
2023-02-14T03:38:50.657Z,1028.36
2023-02-14T03:39:50.657Z,1028.34
2023-02-14T03:40:50.639Z,1028.36
2023-02-14T03:41:50.636Z,1028.37
2023-02-14T03:42:50.608Z,1028.36
2023-02-14T03:43:50.608Z,1028.37
2023-02-14T03:44:50.636Z,1028.37
2023-02-14T03:45:50.588Z,1028.33
2023-02-14T03:46:50.569Z,1028.34
2023-02-14T03:47:50.566Z,1028.36
2023-02-14T03:48:50.554Z,1028.35
2023-02-14T03:49:50.567Z,1028.36
2023-02-14T03:50:50.530Z,1028.38
2023-02-14T03:51:50.520Z,1028.38
2023-02-14T03:52:50.510Z,1028.36
2023-02-14T03:53:50.508Z,1028.37
2023-02-14T03:54:50.503Z,1028.38
2023-02-14T03:55:50.500Z,1028.35
2023-02-14T03:56:50.472Z,1028.35
2023-02-14T03:57:50.448Z,1028.34
2023-02-14T03:58:50.448Z,1028.32
2023-02-14T03:59:50.428Z,1028.37
2023-02-14T04:00:50.427Z,1028.33
2023-02-14T04:01:50.447Z,1028.35
2023-02-14T04:02:50.408Z,1028.39
2023-02-14T04:03:50.450Z,1028.37
2023-02-14T04:04:50.414Z,1028.37
2023-02-14T04:05:50.367Z,1028.37
2023-02-14T04:06:50.360Z,1028.35
2023-02-14T04:07:50.347Z,1028.33
2023-02-14T04:08:50.337Z,1028.31
2023-02-14T04:09:50.339Z,1028.32
2023-02-14T04:10:50.318Z,1028.29
2023-02-14T04:11:50.357Z,1028.32
2023-02-14T04:12:50.297Z,1028.31
2023-02-14T04:13:50.278Z,1028.32
2023-02-14T04:14:50.292Z,1028.31
2023-02-14T04:15:50.372Z,1028.32
2023-02-14T04:16:50.249Z,1028.29
2023-02-14T04:17:50.253Z,1028.35
2023-02-14T04:18:50.373Z,1028.29
2023-02-14T04:19:50.228Z,1028.34
2023-02-14T04:20:50.207Z,1028.30
2023-02-14T04:21:50.206Z,1028.32
2023-02-14T04:22:50.179Z,1028.32
2023-02-14T04:23:50.180Z,1028.30
2023-02-14T04:24:50.177Z,1028.27
2023-02-14T04:25:50.168Z,1028.28
2023-02-14T04:26:50.151Z,1028.29
2023-02-14T04:27:50.140Z,1028.23
2023-02-14T04:28:50.128Z,1028.25
2023-02-14T04:29:50.250Z,1028.25
2023-02-14T04:30:50.161Z,1028.24
2023-02-14T04:31:50.267Z,1028.22
2023-02-14T04:32:50.080Z,1028.22
2023-02-14T04:33:50.169Z,1028.21
2023-02-14T04:34:50.071Z,1028.18
2023-02-14T04:35:50.049Z,1028.18
2023-02-14T04:36:50.038Z,1028.15
2023-02-14T04:37:50.035Z,1028.15
2023-02-14T04:38:50.008Z,1028.14
2023-02-14T04:39:50.034Z,1028.14
2023-02-14T04:40:49.997Z,1028.16
2023-02-14T04:41:49.986Z,1028.14
2023-02-14T04:42:49.968Z,1028.14
2023-02-14T04:43:49.969Z,1028.19
2023-02-14T04:44:50.153Z,1028.16
2023-02-14T04:45:50.214Z,1028.17
2023-02-14T04:46:50.262Z,1028.18
2023-02-14T04:47:49.918Z,1028.18
2023-02-14T04:48:49.900Z,1028.16
2023-02-14T04:49:49.907Z,1028.17
2023-02-14T04:50:49.882Z,1028.20
2023-02-14T04:51:49.878Z,1028.16
2023-02-14T04:52:49.859Z,1028.17
2023-02-14T04:53:49.872Z,1028.16
2023-02-14T04:54:49.849Z,1028.16
2023-02-14T04:55:49.865Z,1028.16
2023-02-14T04:56:49.830Z,1028.18
2023-02-14T04:57:49.809Z,1028.16
2023-02-14T04:58:49.799Z,1028.14
2023-02-14T04:59:49.789Z,1028.10
2023-02-14T05:00:49.805Z,1028.14
2023-02-14T05:01:49.929Z,1028.15
2023-02-14T05:02:49.758Z,1028.10
2023-02-14T05:03:49.750Z,1028.13
2023-02-14T05:04:49.955Z,1028.09
2023-02-14T05:05:49.725Z,1028.11
2023-02-14T05:06:49.721Z,1028.09
2023-02-14T05:07:49.704Z,1028.11
2023-02-14T05:08:49.689Z,1028.08
2023-02-14T05:09:49.677Z,1028.09
2023-02-14T05:10:49.675Z,1028.07
2023-02-14T05:11:49.673Z,1028.07
2023-02-14T05:12:49.646Z,1028.07
2023-02-14T05:13:49.655Z,1028.08
2023-02-14T05:14:49.638Z,1028.07
2023-02-14T05:15:49.618Z,1027.97
2023-02-14T05:16:49.631Z,1028.02
2023-02-14T05:17:49.596Z,1028.00
2023-02-14T05:18:49.578Z,1027.99
2023-02-14T05:19:49.583Z,1027.96
2023-02-14T05:20:49.557Z,1027.96
2023-02-14T05:21:49.576Z,1027.95
2023-02-14T05:22:49.542Z,1027.89
2023-02-14T05:23:49.529Z,1027.93
2023-02-14T05:24:49.527Z,1027.88
2023-02-14T05:25:49.509Z,1027.90
2023-02-14T05:26:49.518Z,1027.92
2023-02-14T05:27:49.487Z,1027.91
2023-02-14T05:28:49.479Z,1027.93
2023-02-14T05:29:49.545Z,1027.93
2023-02-14T05:30:49.458Z,1027.92
2023-02-14T05:31:49.529Z,1027.93
2023-02-14T05:32:49.427Z,1027.92
2023-02-14T05:33:49.418Z,1027.95
2023-02-14T05:34:49.420Z,1027.92
2023-02-14T05:35:49.399Z,1027.91
2023-02-14T05:36:49.379Z,1027.90
2023-02-14T05:37:49.379Z,1027.90
2023-02-14T05:38:49.367Z,1027.88
2023-02-14T05:39:49.362Z,1027.91
2023-02-14T05:40:49.345Z,1027.90
2023-02-14T05:41:49.345Z,1027.89
2023-02-14T05:42:49.320Z,1027.86
2023-02-14T05:43:49.337Z,1027.91
2023-02-14T05:44:49.322Z,1027.90
2023-02-14T05:45:49.342Z,1027.90
2023-02-14T05:46:49.282Z,1027.87
2023-02-14T05:47:49.310Z,1027.92
2023-02-14T05:48:49.249Z,1027.93
2023-02-14T05:49:49.264Z,1027.90
2023-02-14T05:50:49.229Z,1027.84
2023-02-14T05:51:49.220Z,1027.88
2023-02-14T05:52:49.212Z,1027.87
2023-02-14T05:53:49.201Z,1027.87
2023-02-14T05:54:49.192Z,1027.89
2023-02-14T05:55:49.182Z,1027.85
2023-02-14T05:56:49.172Z,1027.90
2023-02-14T05:57:49.171Z,1027.87
2023-02-14T05:58:49.155Z,1027.88
2023-02-14T05:59:49.163Z,1027.90
2023-02-14T06:00:49.133Z,1027.93
2023-02-14T06:01:49.151Z,1027.95
2023-02-14T06:02:49.113Z,1027.93
2023-02-14T06:03:49.123Z,1027.97
2023-02-14T06:04:49.183Z,1027.95
2023-02-14T06:05:49.083Z,1027.96
2023-02-14T06:06:49.065Z,1028.00
2023-02-14T06:07:49.065Z,1027.92
2023-02-14T06:08:49.042Z,1027.96
2023-02-14T06:09:49.047Z,1027.97
2023-02-14T06:10:49.027Z,1027.95
2023-02-14T06:11:49.016Z,1027.97
2023-02-14T06:12:49.021Z,1027.95
2023-02-14T06:13:49.009Z,1027.95
2023-02-14T06:14:49.227Z,1027.98
2023-02-14T06:15:48.976Z,1027.97
2023-02-14T06:16:49.151Z,1027.98
2023-02-14T06:17:48.970Z,1027.99
2023-02-14T06:18:48.937Z,1028.04
2023-02-14T06:19:48.946Z,1028.04
2023-02-14T06:20:48.918Z,1028.04
2023-02-14T06:21:48.915Z,1028.06
2023-02-14T06:22:48.897Z,1028.07
2023-02-14T06:23:48.889Z,1028.10
2023-02-14T06:24:48.878Z,1028.09
2023-02-14T06:25:48.877Z,1028.07
2023-02-14T06:26:48.861Z,1028.08
2023-02-14T06:27:49.424Z,1028.10
2023-02-14T06:28:48.840Z,1028.09
2023-02-14T06:29:48.847Z,1028.03
2023-02-14T06:30:48.892Z,1028.04
2023-02-14T06:31:48.926Z,1028.05
2023-02-14T06:32:48.801Z,1028.09
2023-02-14T06:33:48.786Z,1028.05
2023-02-14T06:34:48.796Z,1028.08
2023-02-14T06:35:48.773Z,1028.07
2023-02-14T06:36:48.748Z,1028.11
2023-02-14T06:37:48.791Z,1028.10
2023-02-14T06:38:48.741Z,1028.10
2023-02-14T06:39:48.728Z,1028.09
2023-02-14T06:40:48.708Z,1028.08
2023-02-14T06:41:48.698Z,1028.10
2023-02-14T06:42:48.685Z,1028.06
2023-02-14T06:43:48.835Z,1028.09
2023-02-14T06:44:48.688Z,1028.09
2023-02-14T06:45:48.720Z,1028.09
2023-02-14T06:46:48.650Z,1028.08
2023-02-14T06:47:48.639Z,1028.08
2023-02-14T06:48:48.619Z,1028.10
2023-02-14T06:49:48.630Z,1028.11
2023-02-14T06:50:48.599Z,1028.10
2023-02-14T06:51:48.600Z,1028.14
2023-02-14T06:52:48.581Z,1028.16
2023-02-14T06:53:48.580Z,1028.20
2023-02-14T06:54:48.590Z,1028.17
2023-02-14T06:55:48.570Z,1028.12
2023-02-14T06:56:48.547Z,1028.21
2023-02-14T06:57:48.539Z,1028.19
2023-02-14T06:58:48.555Z,1028.20
2023-02-14T06:59:48.532Z,1028.19
2023-02-14T07:00:48.497Z,1028.21
2023-02-14T07:01:48.581Z,1028.18
2023-02-14T07:02:49.097Z,1028.20
2023-02-14T07:03:48.468Z,1028.21
2023-02-14T07:04:48.467Z,1028.21
2023-02-14T07:05:48.439Z,1028.21
2023-02-14T07:06:48.442Z,1028.21
2023-02-14T07:07:48.433Z,1028.21
2023-02-14T07:08:48.410Z,1028.25
2023-02-14T07:09:48.419Z,1028.25
2023-02-14T07:10:48.388Z,1028.21
2023-02-14T07:11:48.380Z,1028.20
2023-02-14T07:12:48.373Z,1028.23
2023-02-14T07:13:49.540Z,1028.23
2023-02-14T07:14:48.356Z,1028.21
2023-02-14T07:15:48.384Z,1028.18
2023-02-14T07:16:48.330Z,1028.19
2023-02-14T07:17:48.311Z,1028.19
2023-02-14T07:18:48.303Z,1028.19
2023-02-14T07:19:48.321Z,1028.19
2023-02-14T07:20:48.281Z,1028.21
2023-02-14T07:21:48.274Z,1028.18
2023-02-14T07:22:48.266Z,1028.13
2023-02-14T07:23:48.250Z,1028.13
2023-02-14T07:24:48.376Z,1028.12
2023-02-14T07:25:48.222Z,1028.10
2023-02-14T07:26:48.233Z,1028.09
2023-02-14T07:27:48.211Z,1028.11
2023-02-14T07:28:48.201Z,1028.10
2023-02-14T07:29:48.242Z,1028.12
2023-02-14T07:30:48.371Z,1028.06
2023-02-14T07:31:48.280Z,1028.07
2023-02-14T07:32:48.155Z,1028.06
2023-02-14T07:33:48.140Z,1028.03
2023-02-14T07:34:48.155Z,1028.06
2023-02-14T07:35:48.201Z,1028.02
2023-02-14T07:36:48.114Z,1028.09
2023-02-14T07:37:48.102Z,1028.09
2023-02-14T07:38:48.094Z,1028.08
2023-02-14T07:39:48.110Z,1028.09
2023-02-14T07:40:48.083Z,1028.10
2023-02-14T07:41:48.061Z,1028.09
2023-02-14T07:42:48.054Z,1028.09
2023-02-14T07:43:48.034Z,1028.07
2023-02-14T07:44:48.050Z,1028.09
2023-02-14T07:45:48.003Z,1028.06
2023-02-14T07:46:48.003Z,1028.08
2023-02-14T07:47:47.991Z,1028.08
2023-02-14T07:48:47.980Z,1028.08
2023-02-14T07:49:48.021Z,1028.06
2023-02-14T07:50:47.982Z,1028.08
2023-02-14T07:51:47.951Z,1028.05
2023-02-14T07:52:47.945Z,1028.04
2023-02-14T07:53:47.921Z,1028.02
2023-02-14T07:54:47.934Z,1028.04
2023-02-14T07:55:47.901Z,1028.03
2023-02-14T07:56:47.904Z,1028.02
2023-02-14T07:57:47.961Z,1028.02
2023-02-14T07:58:47.871Z,1028.02
2023-02-14T07:59:47.862Z,1028.05
2023-02-14T08:00:47.844Z,1028.03
2023-02-14T08:01:47.879Z,1027.99
2023-02-14T08:02:47.835Z,1028.08
2023-02-14T08:03:47.811Z,1028.01
2023-02-14T08:04:47.821Z,1028.04
2023-02-14T08:05:47.793Z,1028.04
2023-02-14T08:06:47.789Z,1028.00
2023-02-14T08:07:47.788Z,1028.01
2023-02-14T08:08:47.778Z,1028.04
2023-02-14T08:09:47.757Z,1028.05
2023-02-14T08:10:47.743Z,1028.05
2023-02-14T08:11:47.731Z,1028.08
2023-02-14T08:12:47.712Z,1028.08
2023-02-14T08:13:47.722Z,1028.11
2023-02-14T08:14:47.698Z,1028.09
2023-02-14T08:15:47.710Z,1028.10
2023-02-14T08:16:47.663Z,1028.05
2023-02-14T08:17:47.656Z,1028.07
2023-02-14T08:18:47.645Z,1028.05
2023-02-14T08:19:47.651Z,1028.10
2023-02-14T08:20:47.620Z,1028.05
2023-02-14T08:21:47.624Z,1028.09
2023-02-14T08:22:47.620Z,1028.07
2023-02-14T08:23:47.718Z,1028.12
2023-02-14T08:24:47.590Z,1028.11
2023-02-14T08:25:47.569Z,1028.13
2023-02-14T08:26:47.561Z,1028.10
2023-02-14T08:27:47.547Z,1028.09
2023-02-14T08:28:47.539Z,1028.12
2023-02-14T08:29:47.636Z,1028.10
2023-02-14T08:30:47.533Z,1028.12
2023-02-14T08:31:47.658Z,1028.11
2023-02-14T08:32:47.529Z,1028.09
2023-02-14T08:33:47.490Z,1028.14
2023-02-14T08:34:47.479Z,1028.13
2023-02-14T08:35:47.463Z,1028.12
2023-02-14T08:36:47.463Z,1028.13
2023-02-14T08:37:47.437Z,1028.10
2023-02-14T08:38:47.451Z,1028.12
2023-02-14T08:39:47.421Z,1028.11
2023-02-14T08:40:47.408Z,1028.16
2023-02-14T08:41:47.401Z,1028.12
2023-02-14T08:42:47.381Z,1028.08
2023-02-14T08:43:47.389Z,1028.13
2023-02-14T08:44:47.371Z,1028.13
2023-02-14T08:45:47.361Z,1028.16
2023-02-14T08:46:47.345Z,1028.16
2023-02-14T08:47:47.363Z,1028.15
2023-02-14T08:48:47.310Z,1028.16
2023-02-14T08:49:47.319Z,1028.18
2023-02-14T08:50:47.311Z,1028.17
2023-02-14T08:51:47.285Z,1028.16
2023-02-14T08:52:47.273Z,1028.21
2023-02-14T08:53:47.261Z,1028.14
2023-02-14T08:54:47.243Z,1028.14
2023-02-14T08:55:47.249Z,1028.17
2023-02-14T08:56:47.236Z,1028.15
2023-02-14T08:57:47.252Z,1028.13
2023-02-14T08:58:47.240Z,1028.14
2023-02-14T08:59:47.251Z,1028.10
2023-02-14T09:00:47.268Z,1028.12
2023-02-14T09:01:47.274Z,1028.14
2023-02-14T09:02:47.173Z,1028.14
2023-02-14T09:03:47.181Z,1028.17
2023-02-14T09:04:47.155Z,1028.17
2023-02-14T09:05:47.142Z,1028.14
2023-02-14T09:06:47.174Z,1028.17
2023-02-14T09:07:47.116Z,1028.15
2023-02-14T09:08:47.125Z,1028.17
2023-02-14T09:09:47.103Z,1028.14
2023-02-14T09:10:47.138Z,1028.05
2023-02-14T09:11:47.075Z,1028.03
2023-02-14T09:12:47.054Z,1028.06
2023-02-14T09:13:47.050Z,1028.06
2023-02-14T09:14:47.094Z,1028.01
2023-02-14T09:15:47.024Z,1027.97
2023-02-14T09:16:47.193Z,1028.02
2023-02-14T09:17:47.038Z,1028.06
2023-02-14T09:18:46.985Z,1028.06
2023-02-14T09:19:46.998Z,1028.05
2023-02-14T09:20:47.002Z,1028.04
2023-02-14T09:21:47.048Z,1028.11
2023-02-14T09:22:48.741Z,1028.09
2023-02-14T09:23:46.946Z,1028.12
2023-02-14T09:24:46.939Z,1028.07
2023-02-14T09:25:46.934Z,1028.07
2023-02-14T09:26:46.905Z,1028.09
2023-02-14T09:27:46.899Z,1028.06
2023-02-14T09:28:46.909Z,1028.07
2023-02-14T09:29:46.896Z,1028.06
2023-02-14T09:30:46.856Z,1028.06
2023-02-14T09:31:46.926Z,1028.03
2023-02-14T09:32:46.835Z,1028.02
2023-02-14T09:33:46.835Z,1028.05
2023-02-14T09:34:46.840Z,1027.98
2023-02-14T09:35:46.809Z,1027.98
2023-02-14T09:36:46.803Z,1028.00
2023-02-14T09:37:46.796Z,1027.98
2023-02-14T09:38:46.781Z,1027.96
2023-02-14T09:39:46.778Z,1027.95
2023-02-14T09:40:46.747Z,1027.94
2023-02-14T09:41:46.743Z,1027.92
2023-02-14T09:42:46.728Z,1027.89
2023-02-14T09:43:46.718Z,1027.91
2023-02-14T09:44:46.721Z,1027.92
2023-02-14T09:45:46.760Z,1027.90
2023-02-14T09:46:46.686Z,1027.89
2023-02-14T09:47:46.684Z,1027.92
2023-02-14T09:48:46.683Z,1027.89
2023-02-14T09:49:46.820Z,1027.92
2023-02-14T09:50:46.639Z,1027.96
2023-02-14T09:51:46.634Z,1027.83
2023-02-14T09:52:46.629Z,1027.82
2023-02-14T09:53:46.619Z,1027.86
2023-02-14T09:54:46.610Z,1027.84
2023-02-14T09:55:46.595Z,1027.80
2023-02-14T09:56:51.273Z,1027.82
2023-02-14T09:57:47.569Z,1027.78
2023-02-14T09:58:46.561Z,1027.81
2023-02-14T09:59:46.550Z,1027.81
2023-02-14T10:00:46.628Z,1027.82
2023-02-14T10:01:46.597Z,1027.89
2023-02-14T10:02:46.509Z,1027.85
2023-02-14T10:03:46.509Z,1027.86
2023-02-14T10:04:46.496Z,1027.88
2023-02-14T10:05:46.501Z,1027.90
2023-02-14T10:06:46.488Z,1027.86
2023-02-14T10:07:46.462Z,1027.86
2023-02-14T10:08:46.444Z,1027.85
2023-02-14T10:09:46.452Z,1027.86
2023-02-14T10:10:46.430Z,1027.85
2023-02-14T10:11:46.466Z,1027.87
2023-02-14T10:12:46.434Z,1027.82
2023-02-14T10:13:46.398Z,1027.84
2023-02-14T10:14:46.603Z,1027.82
2023-02-14T10:15:46.363Z,1027.81
2023-02-14T10:16:46.384Z,1027.81
2023-02-14T10:17:46.346Z,1027.82
2023-02-14T10:18:46.333Z,1027.78
2023-02-14T10:19:46.338Z,1027.87
2023-02-14T10:20:46.315Z,1027.88
2023-02-14T10:21:47.954Z,1027.83
2023-02-14T10:22:46.297Z,1027.78
2023-02-14T10:23:46.314Z,1027.77
2023-02-14T10:24:46.284Z,1027.74
2023-02-14T10:25:46.255Z,1027.77
2023-02-14T10:26:46.246Z,1027.75
2023-02-14T10:27:46.233Z,1027.75
2023-02-14T10:28:46.237Z,1027.71
2023-02-14T10:29:46.295Z,1027.74
2023-02-14T10:30:46.311Z,1027.71
2023-02-14T10:31:46.293Z,1027.72
2023-02-14T10:32:46.178Z,1027.67
2023-02-14T10:33:46.172Z,1027.64
2023-02-14T10:34:46.230Z,1027.61
2023-02-14T10:35:46.187Z,1027.55
2023-02-14T10:36:46.193Z,1027.56
2023-02-14T10:37:46.163Z,1027.54
2023-02-14T10:38:46.127Z,1027.57
2023-02-14T10:39:46.124Z,1027.53
2023-02-14T10:40:46.101Z,1027.45
2023-02-14T10:41:46.092Z,1027.48
2023-02-14T10:42:46.075Z,1027.47
2023-02-14T10:43:46.062Z,1027.40
2023-02-14T10:44:46.062Z,1027.43
2023-02-14T10:45:46.089Z,1027.38
2023-02-14T10:46:46.045Z,1027.42
2023-02-14T10:47:46.055Z,1027.35
2023-02-14T10:48:46.016Z,1027.31
2023-02-14T10:49:46.004Z,1027.32
2023-02-14T10:50:45.986Z,1027.29
2023-02-14T10:51:45.974Z,1027.33
2023-02-14T10:52:45.962Z,1027.31
2023-02-14T10:53:45.956Z,1027.24
2023-02-14T10:54:45.946Z,1027.26
2023-02-14T10:55:45.948Z,1027.16
2023-02-14T10:56:45.925Z,1027.20
2023-02-14T10:57:45.905Z,1027.17
2023-02-14T10:58:45.903Z,1027.20
2023-02-14T10:59:45.900Z,1027.24
2023-02-14T11:00:45.884Z,1027.15
2023-02-14T11:01:45.959Z,1027.18
2023-02-14T11:02:45.940Z,1027.13
2023-02-14T11:03:45.944Z,1027.08
2023-02-14T11:04:45.854Z,1027.09
2023-02-14T11:05:46.708Z,1027.06
2023-02-14T11:06:45.814Z,1027.04
2023-02-14T11:07:45.815Z,1027.02
2023-02-14T11:08:45.797Z,1027.02
2023-02-14T11:09:45.784Z,1026.95
2023-02-14T11:10:45.769Z,1026.91
2023-02-14T11:11:45.768Z,1026.89
2023-02-14T11:12:45.758Z,1026.90
2023-02-14T11:13:45.742Z,1026.91
2023-02-14T11:14:45.730Z,1026.80
2023-02-14T11:15:45.710Z,1026.82
2023-02-14T11:16:45.754Z,1026.84
2023-02-14T11:17:45.708Z,1026.78
2023-02-14T11:18:45.686Z,1026.79
2023-02-14T11:19:45.682Z,1026.76
2023-02-14T11:20:45.660Z,1026.79
2023-02-14T11:21:45.665Z,1026.80
2023-02-14T11:22:45.639Z,1026.76
2023-02-14T11:23:45.630Z,1026.76
2023-02-14T11:24:45.635Z,1026.73
2023-02-14T11:25:45.604Z,1026.70
2023-02-14T11:26:45.605Z,1026.72
2023-02-14T11:27:45.588Z,1026.64
2023-02-14T11:28:45.582Z,1026.65
2023-02-14T11:29:45.581Z,1026.63
2023-02-14T11:30:45.621Z,1026.64
2023-02-14T11:31:45.617Z,1026.64
2023-02-14T11:32:45.536Z,1026.63
2023-02-14T11:33:45.510Z,1026.56
2023-02-14T11:34:45.527Z,1026.59
2023-02-14T11:35:45.507Z,1026.55
2023-02-14T11:36:45.516Z,1026.54
2023-02-14T11:37:45.520Z,1026.52
2023-02-14T11:38:45.468Z,1026.55
2023-02-14T11:39:45.451Z,1026.49
2023-02-14T11:40:45.453Z,1026.49
2023-02-14T11:41:45.432Z,1026.48
2023-02-14T11:42:45.609Z,1026.45
2023-02-14T11:43:45.434Z,1026.44
2023-02-14T11:44:45.433Z,1026.47
2023-02-14T11:45:45.468Z,1026.42
2023-02-14T11:46:53.115Z,1026.38
2023-02-14T11:47:46.405Z,1026.36
2023-02-14T11:48:45.374Z,1026.40
2023-02-14T11:49:45.348Z,1026.37
2023-02-14T11:50:45.345Z,1026.36
2023-02-14T11:51:45.375Z,1026.34
2023-02-14T11:52:45.398Z,1026.36
2023-02-14T11:53:45.520Z,1026.35
2023-02-14T11:54:45.298Z,1026.30
2023-02-14T11:55:45.279Z,1026.29
2023-02-14T11:56:45.280Z,1026.31
2023-02-14T11:57:45.258Z,1026.25
2023-02-14T11:58:45.269Z,1026.24
2023-02-14T11:59:45.254Z,1026.22
2023-02-14T12:00:45.233Z,1026.17
2023-02-14T12:01:45.212Z,1026.15
2023-02-14T12:02:45.263Z,1026.13
2023-02-14T12:03:45.252Z,1026.02
2023-02-14T12:04:46.795Z,1026.06
2023-02-14T12:05:45.174Z,1026.07